createdAt,value
2022-10-04T00:02:35.073Z,101689.84
2022-10-04T00:05:42.345Z,101687.16
2022-10-04T00:08:58.010Z,101690.03
2022-10-04T00:12:06.050Z,101683.78
2022-10-04T00:15:25.623Z,101691.63
2022-10-04T00:18:41.040Z,101694.50
2022-10-04T00:21:56.855Z,101689.97
2022-10-04T00:25:08.898Z,101690.31
2022-10-04T00:28:26.401Z,101691.38
2022-10-04T00:31:32.000Z,101686.47
2022-10-04T00:34:49.933Z,101677.78
2022-10-04T00:38:08.455Z,101674.78
2022-10-04T00:41:14.713Z,101680.91
2022-10-04T00:44:28.017Z,101684.44
2022-10-04T00:48:08.455Z,101680.91
2022-10-04T00:51:30.300Z,101679.16
2022-10-04T00:54:47.838Z,101682.38
2022-10-04T00:58:00.229Z,101686.16
2022-10-04T01:01:06.634Z,101683.00
2022-10-04T01:04:28.756Z,101689.13
2022-10-04T01:07:41.489Z,101690.81
2022-10-04T01:10:59.094Z,101684.00
2022-10-04T01:14:15.452Z,101677.06
2022-10-04T01:17:20.846Z,101683.63
2022-10-04T01:20:35.568Z,101678.41
2022-10-04T01:23:48.229Z,101674.38
2022-10-04T01:26:54.824Z,101674.88
2022-10-04T01:30:02.190Z,101682.88
2022-10-04T01:33:07.926Z,101684.75
2022-10-04T01:36:13.526Z,101675.16
2022-10-04T01:39:22.922Z,101676.28
2022-10-04T01:42:44.946Z,101666.91
2022-10-04T01:45:57.326Z,101667.53
2022-10-04T01:49:12.642Z,101668.88
2022-10-04T01:52:35.873Z,101665.84
2022-10-04T01:55:45.647Z,101666.19
2022-10-04T01:58:59.996Z,101669.56
2022-10-04T02:02:18.940Z,101658.38
2022-10-04T02:05:40.695Z,101661.81
2022-10-04T02:08:52.718Z,101657.66
2022-10-04T02:11:59.577Z,101661.03
2022-10-04T02:15:08.850Z,101655.03
2022-10-04T02:18:18.945Z,101656.59
2022-10-04T02:21:24.789Z,101660.75
2022-10-04T02:24:34.967Z,101663.28
2022-10-04T02:27:40.786Z,101661.38
2022-10-04T02:31:09.168Z,101664.00
2022-10-04T02:34:19.207Z,101652.63
2022-10-04T02:37:29.144Z,101657.19
2022-10-04T02:41:14.602Z,101654.75
2022-10-04T02:44:40.486Z,101659.31
2022-10-04T02:47:54.050Z,101654.81
2022-10-04T02:51:26.901Z,101658.06
2022-10-04T02:54:43.692Z,101661.94
2022-10-04T02:57:53.203Z,101654.97
2022-10-04T03:01:02.378Z,101654.16
2022-10-04T03:04:11.437Z,101657.91
2022-10-04T03:07:17.591Z,101657.91
2022-10-04T03:10:22.967Z,101657.03
2022-10-04T03:13:28.794Z,101652.13
2022-10-04T03:16:40.249Z,101657.50
2022-10-04T03:19:49.327Z,101661.66
2022-10-04T03:22:57.161Z,101659.47
2022-10-04T03:26:20.930Z,101671.25
2022-10-04T03:29:30.793Z,101669.84
2022-10-04T03:32:36.768Z,101676.47
2022-10-04T03:35:42.367Z,101671.19
2022-10-04T03:38:49.509Z,101685.53
2022-10-04T03:41:55.301Z,101684.28
2022-10-04T03:45:04.365Z,101683.22
2022-10-04T03:48:15.239Z,101690.13
2022-10-04T03:51:24.530Z,101688.69
2022-10-04T03:54:31.993Z,101692.22
2022-10-04T03:57:38.460Z,101695.47
2022-10-04T04:00:57.941Z,101691.66
2022-10-04T04:04:36.133Z,101699.72
2022-10-04T04:08:05.720Z,101691.81
2022-10-04T04:11:21.547Z,101692.56
2022-10-04T04:14:28.805Z,101684.53
2022-10-04T04:17:43.078Z,101683.97
2022-10-04T04:20:51.990Z,101694.84
2022-10-04T04:24:03.209Z,101688.50
2022-10-04T04:27:11.253Z,101698.25
2022-10-04T04:30:19.057Z,101696.72
2022-10-04T04:33:30.492Z,101697.03
2022-10-04T04:36:42.285Z,101690.34
2022-10-04T04:39:55.358Z,101705.94
2022-10-04T04:43:03.263Z,101708.47
2022-10-04T04:46:26.784Z,101709.94
2022-10-04T04:49:38.246Z,101712.38
2022-10-04T04:52:55.307Z,101714.00
2022-10-04T04:56:04.904Z,101728.94
2022-10-04T04:59:13.574Z,101729.44
2022-10-04T05:02:58.201Z,101731.84
2022-10-04T05:06:05.298Z,101737.66
2022-10-04T05:09:34.998Z,101738.56
2022-10-04T05:12:40.536Z,101740.84
2022-10-04T05:15:48.837Z,101744.19
2022-10-04T05:19:08.744Z,101747.38
2022-10-04T05:22:19.923Z,101739.94
2022-10-04T05:25:32.351Z,101739.03
2022-10-04T05:28:38.033Z,101741.97
2022-10-04T05:31:46.718Z,101747.50
2022-10-04T05:34:54.285Z,101735.50
2022-10-04T05:38:11.054Z,101745.25
2022-10-04T05:41:52.415Z,101753.88
2022-10-04T05:44:58.801Z,101759.50
2022-10-04T05:48:09.446Z,101751.81
2022-10-04T05:51:31.611Z,101757.53
2022-10-04T05:54:38.130Z,101755.91
2022-10-04T05:58:25.621Z,101755.75
2022-10-04T06:02:31.644Z,101765.28
2022-10-04T06:05:54.436Z,101762.78
2022-10-04T06:09:34.401Z,101758.75
2022-10-04T06:12:55.869Z,101758.06
2022-10-04T06:16:24.974Z,101758.91
2022-10-04T06:19:53.327Z,101769.69
2022-10-04T06:23:06.507Z,101771.94
2022-10-04T06:26:22.787Z,101774.94
2022-10-04T06:29:58.570Z,101778.81
2022-10-04T06:33:23.154Z,101785.75
2022-10-04T06:36:39.140Z,101784.19
2022-10-04T06:40:21.711Z,101787.75
2022-10-04T06:44:20.243Z,101795.94
2022-10-04T06:48:01.358Z,101806.34
2022-10-04T06:51:27.966Z,101816.44
2022-10-04T06:54:41.381Z,101812.53
2022-10-04T06:58:15.042Z,101812.88
2022-10-04T07:01:29.539Z,101820.44
2022-10-04T07:05:07.713Z,101826.84
2022-10-04T07:08:56.455Z,101831.91
2022-10-04T07:12:08.821Z,101839.19
2022-10-04T07:15:22.003Z,101841.69
2022-10-04T07:19:05.823Z,101835.63
2022-10-04T07:22:15.519Z,101842.41
2022-10-04T07:25:51.177Z,101848.75
2022-10-04T07:29:20.367Z,101850.13
2022-10-04T07:32:31.645Z,101851.00
2022-10-04T07:35:47.609Z,101865.44
2022-10-04T07:39:10.886Z,101860.13
2022-10-04T07:42:27.119Z,101858.44
2022-10-04T07:45:40.314Z,101867.13
2022-10-04T07:48:49.575Z,101863.09
2022-10-04T07:52:28.538Z,101865.13
2022-10-04T07:55:51.101Z,101877.59
2022-10-04T07:59:15.371Z,101881.97
2022-10-04T08:02:42.694Z,101878.69
2022-10-04T08:06:29.736Z,101881.47
2022-10-04T08:09:44.419Z,101887.03
2022-10-04T08:12:57.966Z,101880.56
2022-10-04T08:16:21.691Z,101890.06
2022-10-04T08:19:39.368Z,101887.34
2022-10-04T08:23:32.803Z,101883.34
2022-10-04T08:27:01.587Z,101892.22
2022-10-04T08:30:11.447Z,101882.84
2022-10-04T08:33:37.703Z,101885.59
2022-10-04T08:36:48.470Z,101884.03
2022-10-04T08:40:13.912Z,101885.09
2022-10-04T08:43:43.480Z,101887.44
2022-10-04T08:47:25.739Z,101895.38
2022-10-04T08:50:49.028Z,101891.06
2022-10-04T08:54:22.934Z,101894.34
2022-10-04T08:57:42.522Z,101892.22
2022-10-04T09:01:09.213Z,101890.06
2022-10-04T09:04:39.160Z,101896.03
2022-10-04T09:07:54.842Z,101886.28
2022-10-04T09:11:45.610Z,101883.56
2022-10-04T09:15:26.659Z,101891.44
2022-10-04T09:19:00.572Z,101894.16
2022-10-04T09:22:36.900Z,101884.16
2022-10-04T09:25:59.685Z,101883.31
2022-10-04T09:29:26.217Z,101890.34
2022-10-04T09:32:57.945Z,101884.66
2022-10-04T09:36:22.481Z,101885.75
2022-10-04T09:39:46.373Z,101881.69
2022-10-04T09:43:30.246Z,101891.66
2022-10-04T09:46:35.884Z,101891.94
2022-10-04T09:50:06.806Z,101885.38
2022-10-04T09:53:49.593Z,101888.94
2022-10-04T09:57:07.194Z,101883.56
2022-10-04T10:00:23.678Z,101882.72
2022-10-04T10:03:51.308Z,101888.34
2022-10-04T10:07:30.172Z,101887.75
2022-10-04T10:11:10.410Z,101886.44
2022-10-04T10:15:06.615Z,101882.34
2022-10-04T10:18:40.183Z,101889.91
2022-10-04T10:21:54.714Z,101888.59
2022-10-04T10:25:19.442Z,101889.25
2022-10-04T10:28:29.527Z,101891.03
2022-10-04T10:32:06.181Z,101895.41
2022-10-04T10:35:30.268Z,101891.31
2022-10-04T10:38:48.667Z,101889.38
2022-10-04T10:42:17.058Z,101878.72
2022-10-04T10:45:50.632Z,101888.25
2022-10-04T10:49:22.419Z,101884.03
2022-10-04T10:52:46.305Z,101886.09
2022-10-04T10:56:04.126Z,101877.91
2022-10-04T10:59:41.181Z,101882.53
2022-10-04T11:03:13.907Z,101882.78
2022-10-04T11:06:26.762Z,101885.63
2022-10-04T11:10:11.484Z,101885.41
2022-10-04T11:13:42.878Z,101880.50
2022-10-04T11:16:51.228Z,101886.97
2022-10-04T11:20:27.247Z,101885.88
2022-10-04T11:24:15.425Z,101884.19
2022-10-04T11:28:01.424Z,101884.91
2022-10-04T11:31:17.608Z,101883.63
2022-10-04T11:35:18.147Z,101881.44
2022-10-04T11:38:35.943Z,101879.25
2022-10-04T11:42:02.902Z,101869.97
2022-10-04T11:45:28.010Z,101881.91
2022-10-04T11:48:39.537Z,101872.41
2022-10-04T11:51:50.582Z,101869.16
2022-10-04T11:55:34.551Z,101870.06
2022-10-04T11:58:45.456Z,101876.78
2022-10-04T12:02:18.451Z,101864.78
2022-10-04T12:05:42.039Z,101871.25
2022-10-04T12:09:14.612Z,101872.94
2022-10-04T12:12:42.450Z,101872.34
2022-10-04T12:16:01.466Z,101870.59
2022-10-04T12:19:21.965Z,101870.78
2022-10-04T12:22:43.816Z,101865.94
2022-10-04T12:26:00.041Z,101864.78
2022-10-04T12:29:34.462Z,101863.44
2022-10-04T12:32:57.982Z,101866.16
2022-10-04T12:36:24.282Z,101857.38
2022-10-04T12:39:53.601Z,101854.44
2022-10-04T12:43:07.425Z,101854.41
2022-10-04T12:46:30.886Z,101858.44
2022-10-04T12:49:51.657Z,101849.50
2022-10-04T12:53:02.918Z,101847.28
2022-10-04T12:56:13.705Z,101839.97
2022-10-04T12:59:29.376Z,101837.97
2022-10-04T13:02:52.346Z,101845.28
2022-10-04T13:06:15.479Z,101849.50
2022-10-04T13:09:35.626Z,101850.78
2022-10-04T13:13:04.413Z,101845.41
2022-10-04T13:20:32.786Z,101841.91
2022-10-04T13:24:15.135Z,101847.75
2022-10-04T13:27:48.856Z,101838.81
2022-10-04T13:31:10.829Z,101836.81
2022-10-04T13:34:29.362Z,101839.06
2022-10-04T13:37:51.026Z,101848.06
2022-10-04T13:41:11.343Z,101839.34
2022-10-04T13:44:33.529Z,101834.28
2022-10-04T13:48:00.707Z,101821.41
2022-10-04T13:51:34.362Z,101820.50
2022-10-04T13:55:08.395Z,101815.22
2022-10-04T13:58:36.904Z,101814.41
2022-10-04T14:01:48.927Z,101806.88
2022-10-04T14:05:19.614Z,101805.53
2022-10-04T14:08:37.533Z,101806.13
2022-10-04T14:12:07.967Z,101807.50
2022-10-04T14:15:23.556Z,101811.03
2022-10-04T14:18:45.775Z,101813.63
2022-10-04T14:22:12.624Z,101821.25
2022-10-04T14:25:56.811Z,101819.66
2022-10-04T14:29:53.255Z,101814.53
2022-10-04T14:33:26.444Z,101823.78
2022-10-04T14:36:56.525Z,101818.66
2022-10-04T14:40:28.938Z,101817.31
2022-10-04T14:43:55.277Z,101816.19
2022-10-04T14:47:35.448Z,101819.91
2022-10-04T14:51:19.886Z,101814.75
2022-10-04T14:54:29.563Z,101827.13
2022-10-04T14:58:14.063Z,101821.69
2022-10-04T15:01:24.948Z,101823.66
2022-10-04T15:04:54.689Z,101824.75
2022-10-04T15:08:23.095Z,101818.50
2022-10-04T15:11:53.498Z,101813.53
2022-10-04T15:15:14.656Z,101818.75
2022-10-04T15:18:38.676Z,101813.53
2022-10-04T15:21:47.394Z,101815.25
2022-10-04T15:24:53.989Z,101810.22
2022-10-04T15:28:00.313Z,101813.03
2022-10-04T15:31:24.251Z,101812.69
2022-10-04T15:35:08.164Z,101819.75
2022-10-04T15:38:34.380Z,101813.47
2022-10-04T15:41:54.404Z,101821.50
2022-10-04T15:45:17.682Z,101823.94
2022-10-04T15:48:35.242Z,101821.81
2022-10-04T15:52:13.222Z,101834.91
2022-10-04T15:55:50.860Z,101834.69
2022-10-04T15:59:24.922Z,101838.25
2022-10-04T16:02:57.116Z,101843.75
2022-10-04T16:06:12.983Z,101850.31
2022-10-04T16:09:59.590Z,101851.91
2022-10-04T16:13:17.431Z,101857.63
2022-10-04T16:16:35.010Z,101862.22
2022-10-04T16:20:04.833Z,101860.13
2022-10-04T16:23:34.671Z,101857.69
2022-10-04T16:26:43.858Z,101868.03
2022-10-04T16:30:21.771Z,101866.69
2022-10-04T16:33:29.707Z,101868.88
2022-10-04T16:37:05.750Z,101881.09
2022-10-04T16:40:27.432Z,101882.47
2022-10-04T16:43:33.520Z,101885.19
2022-10-04T16:46:46.702Z,101886.00
2022-10-04T16:49:58.179Z,101890.63
2022-10-04T16:53:44.080Z,101894.16
2022-10-04T16:56:58.328Z,101895.47
2022-10-04T17:00:36.452Z,101904.16
2022-10-04T17:03:57.143Z,101907.97
2022-10-04T17:07:12.519Z,101916.59
2022-10-04T17:10:45.334Z,101921.22
2022-10-04T17:14:00.007Z,101924.16
2022-10-04T17:17:35.642Z,101931.75
2022-10-04T17:20:43.762Z,101935.25
2022-10-04T17:24:12.191Z,101940.66
2022-10-04T17:27:39.536Z,101943.88
2022-10-04T17:31:01.347Z,101948.72
2022-10-04T17:34:14.759Z,101950.84
2022-10-04T17:37:48.331Z,101948.97
2022-10-04T17:41:20.903Z,101955.47
2022-10-04T17:44:34.483Z,101963.56
2022-10-04T17:48:07.833Z,101966.19
2022-10-04T17:51:50.645Z,101964.50
2022-10-04T17:55:16.022Z,101974.28
2022-10-04T17:58:31.577Z,101976.91
2022-10-04T18:01:43.168Z,101979.00
2022-10-04T18:04:53.437Z,101991.19
2022-10-04T18:08:23.525Z,101992.56
2022-10-04T18:11:42.044Z,101995.50
2022-10-04T18:14:50.437Z,101986.22
2022-10-04T18:18:19.269Z,102000.22
2022-10-04T18:21:29.699Z,102001.50
2022-10-04T18:24:34.920Z,102006.13
2022-10-04T18:28:06.993Z,102006.31
2022-10-04T18:31:35.639Z,102020.09
2022-10-04T18:34:42.048Z,102013.31
2022-10-04T18:37:47.458Z,102014.13
2022-10-04T18:40:58.544Z,102017.53
2022-10-04T18:44:15.129Z,102021.25
2022-10-04T18:47:34.693Z,102021.53
2022-10-04T18:50:48.963Z,102031.88
2022-10-04T18:54:22.311Z,102028.19
2022-10-04T18:57:59.367Z,102041.81
2022-10-04T19:01:34.589Z,102037.34
2022-10-04T19:04:49.395Z,102040.09
2022-10-04T19:08:30.811Z,102049.22
2022-10-04T19:12:09.891Z,102053.97
2022-10-04T19:15:28.317Z,102046.38
2022-10-04T19:19:08.082Z,102053.41
2022-10-04T19:22:38.569Z,102054.53
2022-10-04T19:26:17.641Z,102057.47
2022-10-04T19:29:54.682Z,102064.91
2022-10-04T19:33:05.952Z,102068.50
2022-10-04T19:36:23.615Z,102076.31
2022-10-04T19:39:55.034Z,102068.59
2022-10-04T19:43:05.926Z,102079.91
2022-10-04T19:46:33.253Z,102086.59
2022-10-04T19:50:03.085Z,102077.16
2022-10-04T19:53:28.038Z,102080.03
2022-10-04T19:56:38.859Z,102085.16
2022-10-04T19:59:49.747Z,102084.22
2022-10-04T20:02:55.785Z,102084.72
2022-10-04T20:06:09.918Z,102084.34
2022-10-04T20:09:34.733Z,102092.31
2022-10-04T20:12:43.317Z,102089.22
2022-10-04T20:15:50.546Z,102097.75
2022-10-04T20:19:00.682Z,102096.94
2022-10-04T20:22:11.198Z,102109.28
2022-10-04T20:25:46.911Z,102109.63
2022-10-04T20:28:52.752Z,102104.56
2022-10-04T20:31:59.097Z,102111.09
2022-10-04T20:35:52.135Z,102116.38
2022-10-04T20:39:02.629Z,102122.16
2022-10-04T20:42:30.233Z,102116.25
2022-10-04T20:45:45.526Z,102125.41
2022-10-04T20:48:53.932Z,102127.53
2022-10-04T20:51:59.461Z,102127.84
2022-10-04T20:55:21.347Z,102133.66
2022-10-04T20:58:35.632Z,102132.38
2022-10-04T21:01:44.586Z,102137.91
2022-10-04T21:04:54.118Z,102141.09
2022-10-04T21:08:21.837Z,102135.69
2022-10-04T21:11:44.505Z,102148.28
2022-10-04T21:15:19.025Z,102139.22
2022-10-04T21:18:24.633Z,102142.16
2022-10-04T21:21:49.497Z,102145.94
2022-10-04T21:25:00.450Z,102144.78
2022-10-04T21:28:24.396Z,102146.25
2022-10-04T21:31:29.843Z,102150.00
2022-10-04T21:34:52.442Z,102153.19
2022-10-04T21:37:59.194Z,102154.97
2022-10-04T21:41:05.408Z,102160.28
2022-10-04T21:44:10.447Z,102164.75
2022-10-04T21:47:16.416Z,102169.03
2022-10-04T21:50:21.465Z,102166.59
2022-10-04T21:53:26.598Z,102179.66
2022-10-04T21:56:32.256Z,102186.09
2022-10-04T21:59:37.986Z,102192.09
2022-10-04T22:02:43.348Z,102199.47
2022-10-04T22:05:48.466Z,102200.59
2022-10-04T22:08:53.825Z,102195.88
2022-10-04T22:11:58.779Z,102206.66
2022-10-04T22:15:05.229Z,102202.59
2022-10-04T22:18:10.726Z,102198.63
2022-10-04T22:21:15.695Z,102201.94
2022-10-04T22:24:21.278Z,102194.69
2022-10-04T22:27:29.076Z,102190.25
2022-10-04T22:30:36.824Z,102191.88
2022-10-04T22:33:45.003Z,102188.63
2022-10-04T22:36:53.486Z,102187.13
2022-10-04T22:39:59.121Z,102191.31
2022-10-04T22:43:04.673Z,102194.94
2022-10-04T22:46:19.389Z,102199.25
2022-10-04T22:49:36.606Z,102201.44
2022-10-04T22:52:42.056Z,102209.13
2022-10-04T22:55:52.463Z,102205.63
2022-10-04T22:58:59.967Z,102205.53
2022-10-04T23:02:28.940Z,102203.28
2022-10-04T23:05:34.074Z,102187.59
2022-10-04T23:08:40.343Z,102190.88
2022-10-04T23:11:46.159Z,102187.38
2022-10-04T23:14:51.659Z,102184.44
2022-10-04T23:17:57.683Z,102183.97
2022-10-04T23:21:03.757Z,102181.56
2022-10-04T23:24:18.524Z,102182.94
2022-10-04T23:27:24.159Z,102187.03
2022-10-04T23:30:29.482Z,102180.84
2022-10-04T23:33:34.827Z,102191.06
2022-10-04T23:36:40.819Z,102193.66
2022-10-04T23:39:47.072Z,102204.78
2022-10-04T23:42:57.014Z,102200.19
2022-10-04T23:46:02.693Z,102207.69
2022-10-04T23:49:15.795Z,102202.56
2022-10-04T23:52:37.008Z,102202.47
2022-10-04T23:55:45.938Z,102199.78
2022-10-04T23:58:55.998Z,102209.97
